Zaanstad, Netherlands
Current Conditions -  °F | °C
As of 11:55 AM on Thursday 23 Oct 2014 (Local Time) from EHAM Reporting Station
Broken Clouds Broken Clouds  
Wind Chill: 55°   Ceiling: 3000
Heat Index: 55°   Visibility: 6mi
Dew Point: 52°   Wind: 13mph
Humidity: 88%   Direction: 190°S
Pressure: 30.15"   Gusts: NA
Location:  52.45°N, 4.81°E
Report Text: EHAM 230955Z 19011KT 9999 SCT021 BKN030 13/11 Q1021 NOSIG
Loading
Personal Weather Stations






























Interactive Weather Map
Tropical Storm Tracking
New forecast layout! Learn more

10-Day Weather Forecast

Advertisements
Track Severe Weather on mobile